Time;durP1;ratioP1;P1;durP2;ratioP2;P2;SDS_P1;SDS_P2;PMS_P1;PMS_P2;Temp;Humidity;BMP_temperature;BMP_pressure;BME280_temperature;BME280_humidity;BME280_pressure;Samples;Min_cycle;Max_cycle;Signal;HPM_P1;HPM_P2
2022/10/23 00:01:25;;;;;;;10.00;0.87;;;;;;;10.94;100.00;100266.34;5031872;28;20029;-50
2022/10/23 00:03:53;;;;;;;7.82;1.73;;;;;;;10.94;100.00;100270.84;5026014;28;20504;-52
2022/10/23 00:06:19;;;;;;;6.28;0.60;;;;;;;10.93;100.00;100269.22;5030553;28;20044;-52
2022/10/23 00:08:46;;;;;;;5.82;1.10;;;;;;;10.96;100.00;100256.34;5031670;28;20037;-51
2022/10/23 00:11:16;;;;;;;2.58;1.55;;;;;;;11.00;100.00;100262.09;5028758;28;20051;-50
2022/10/23 00:13:42;;;;;;;9.53;1.87;;;;;;;10.95;100.00;100249.44;5031565;28;20033;-50
2022/10/23 00:16:08;;;;;;;0.30;0.20;;;;;;;10.93;100.00;100240.84;5032081;28;20033;-51
2022/10/23 00:18:34;;;;;;;4.78;0.30;;;;;;;10.95;100.00;100249.44;5036804;28;20037;-50
2022/10/23 00:21:00;;;;;;;4.75;1.13;;;;;;;10.95;100.00;100238.00;5040141;28;20162;-48
2022/10/23 00:23:26;;;;;;;2.55;1.27;;;;;;;10.94;100.00;100242.47;5034782;28;20032;-51
2022/10/23 00:25:51;;;;;;;6.55;1.77;;;;;;;10.94;100.00;100246.97;5044363;28;20029;-53
2022/10/23 00:28:17;;;;;;;1.98;1.30;;;;;;;10.97;100.00;100235.94;5044428;28;20052;-47
2022/10/23 00:30:42;;;;;;;3.42;1.52;;;;;;;11.00;100.00;100223.13;5036273;28;20033;-50
2022/10/23 00:33:09;;;;;;;5.63;2.20;;;;;;;11.03;100.00;100228.03;5044317;28;20052;-48
2022/10/23 00:35:37;;;;;;;2.35;0.90;;;;;;;11.03;100.00;100227.22;5052305;28;20123;-50
2022/10/23 00:38:03;;;;;;;3.67;1.17;;;;;;;11.01;100.00;100227.41;5041406;28;20021;-51
2022/10/23 00:40:28;;;;;;;3.50;0.93;;;;;;;11.03;100.00;100216.59;5041429;28;20037;-49
2022/10/23 00:42:53;;;;;;;4.25;1.42;;;;;;;11.04;100.00;100212.91;5038260;28;20041;-50
2022/10/23 00:45:25;;;;;;;0.75;0.70;;;;;;;11.06;100.00;100211.69;5050268;28;20060;-48
2022/10/23 00:47:52;;;;;;;5.70;2.67;;;;;;;11.08;100.00;100211.50;5040586;28;20698;-48
2022/10/23 00:50:19;;;;;;;2.00;1.10;;;;;;;11.07;100.00;100202.69;5035137;28;20029;-47
2022/10/23 00:52:50;;;;;;;3.90;1.67;;;;;;;11.14;100.00;100208.03;5039564;28;21979;-50
2022/10/23 00:55:17;;;;;;;4.88;1.08;;;;;;;11.11;100.00;100201.28;5051744;28;20493;-52
2022/10/23 00:57:45;;;;;;;4.47;1.38;;;;;;;11.18;100.00;100201.31;5036880;28;20052;-52
2022/10/23 01:00:33;;;;;;;1.50;1.13;;;;;;;11.27;100.00;100192.13;5039945;28;20095;-49
2022/10/23 01:02:58;;;;;;;8.38;1.63;;;;;;;11.34;100.00;100195.63;5036004;28;20513;-49
2022/10/23 01:05:31;;;;;;;5.63;1.55;;;;;;;11.45;100.00;100191.53;5041381;28;20025;-51
2022/10/23 01:08:04;;;;;;;6.13;2.67;;;;;;;11.53;100.00;100188.66;5058613;28;20492;-47
2022/10/23 01:10:43;;;;;;;3.75;1.58;;;;;;;11.73;100.00;100190.53;5040198;28;20033;-50
2022/10/23 01:13:19;;;;;;;2.15;1.08;;;;;;;11.81;100.00;100189.50;5039240;28;20040;-54
2022/10/23 01:15:59;;;;;;;3.70;1.25;;;;;;;11.90;100.00;100183.78;5039202;28;20037;-48
2022/10/23 01:18:35;;;;;;;3.85;1.40;;;;;;;11.95;100.00;100177.84;5046496;28;20037;-49
2022/10/23 01:21:15;;;;;;;10.43;1.67;;;;;;;11.91;100.00;100188.06;5033689;28;20248;-47
2022/10/23 01:24:03;;;;;;;8.02;1.40;;;;;;;11.94;100.00;100173.56;5032893;28;20048;-52
2022/10/23 01:26:54;;;;;;;8.60;1.13;;;;;;;11.95;100.00;100168.06;5043271;28;20029;-49
2022/10/23 01:29:34;;;;;;;6.32;1.02;;;;;;;12.00;100.00;100168.25;5029120;28;20123;-48
2022/10/23 01:32:11;;;;;;;6.32;1.65;;;;;;;12.16;100.00;100166.16;5037373;28;20033;-51
2022/10/23 01:34:49;;;;;;;3.60;0.93;;;;;;;12.22;100.00;100160.81;5044463;28;20037;-51
2022/10/23 01:37:22;;;;;;;2.30;1.38;;;;;;;12.27;100.00;100162.84;5038938;28;20036;-54
2022/10/23 01:39:52;;;;;;;15.05;4.22;;;;;;;12.32;100.00;100160.38;5038432;28;20033;-48
2022/10/23 01:42:27;;;;;;;9.75;2.72;;;;;;;12.41;100.00;100148.47;5029444;28;20390;-52
2022/10/23 01:45:04;;;;;;;13.75;2.88;;;;;;;12.41;100.00;100143.16;5039905;28;20029;-50
2022/10/23 01:47:33;;;;;;;6.50;1.48;;;;;;;12.50;100.00;100137.63;5043398;28;20393;-48
2022/10/23 01:49:59;;;;;;;7.60;1.13;;;;;;;12.52;100.00;100135.53;5034519;28;20029;-51
2022/10/23 01:52:25;;;;;;;4.60;1.10;;;;;;;12.54;100.00;100134.28;5036705;28;20028;-51
2022/10/23 01:54:55;;;;;;;5.75;1.40;;;;;;;12.52;100.00;100125.75;5037991;28;20040;-50
2022/10/23 01:57:22;;;;;;;7.85;2.35;;;;;;;12.60;100.00;100128.16;5043661;28;20116;-48
2022/10/23 01:59:57;;;;;;;31.65;3.40;;;;;;;12.63;100.00;100121.59;5050622;28;20026;-50
2022/10/23 02:02:25;;;;;;;1.75;0.88;;;;;;;12.53;100.00;100116.72;5046703;28;20063;-51
2022/10/23 02:05:11;;;;;;;3.75;1.25;;;;;;;12.58;100.00;100108.09;5040495;28;20435;-48
2022/10/23 02:07:37;;;;;;;2.35;0.98;;;;;;;12.59;100.00;100102.56;5034483;28;20322;-51
2022/10/23 02:10:07;;;;;;;2.20;1.20;;;;;;;12.60;100.00;100098.06;5045823;28;20374;-53
2022/10/23 02:12:39;;;;;;;8.52;1.65;;;;;;;12.63;100.00;100087.00;5040687;28;20823;-52
2022/10/23 02:15:24;;;;;;;6.63;1.50;;;;;;;12.67;100.00;100080.22;5057041;28;20444;-52
2022/10/23 02:18:06;;;;;;;8.38;1.25;;;;;;;12.64;100.00;100084.13;5033289;28;20238;-49
2022/10/23 02:21:02;;;;;;;6.22;1.48;;;;;;;12.67;100.00;100090.84;5042168;28;20029;-51
2022/10/23 02:23:33;;;;;;;10.50;2.28;;;;;;;12.72;100.00;100064.44;5036279;28;20132;-49
2022/10/23 02:26:06;;;;;;;4.25;0.82;;;;;;;12.74;100.00;100043.75;5034922;28;20445;-50
2022/10/23 02:28:42;;;;;;;7.13;1.33;;;;;;;12.71;100.00;100035.41;5041805;28;20694;-48
2022/10/23 02:31:12;;;;;;;2.83;0.40;;;;;;;12.70;100.00;100052.38;5039878;28;20041;-51
2022/10/23 02:33:38;;;;;;;3.17;1.63;;;;;;;12.68;100.00;100067.75;5037729;28;20163;-50
2022/10/23 02:36:04;;;;;;;3.60;0.95;;;;;;;12.70;100.00;100066.50;5041430;28;20381;-54
2022/10/23 02:38:41;;;;;;;5.68;1.30;;;;;;;12.78;100.00;100058.25;5034541;28;20032;-50
2022/10/23 02:41:36;;;;;;;10.00;1.50;;;;;;;12.92;100.00;100052.84;5037554;28;20037;-53
2022/10/23 02:44:07;;;;;;;4.20;1.52;;;;;;;12.92;100.00;100037.69;5037592;28;20044;-50
2022/10/23 02:46:50;;;;;;;5.32;0.88;;;;;;;12.95;100.00;100037.25;5036295;28;20025;-48
2022/10/23 02:49:26;;;;;;;4.95;0.93;;;;;;;12.93;100.00;100022.53;5055422;28;20080;-52
2022/10/23 02:52:23;;;;;;;4.60;1.05;;;;;;;12.91;100.00;100008.63;5040494;28;20105;-55
2022/10/23 02:55:15;;;;;;;5.20;1.00;;;;;;;12.88;100.00;100000.06;5032692;28;20075;-53
2022/10/23 02:57:48;;;;;;;5.40;1.00;;;;;;;12.80;100.00;99992.34;5044326;28;20037;-53
2022/10/23 03:00:18;;;;;;;5.75;1.48;;;;;;;12.76;100.00;99985.03;5043996;28;20029;-49
2022/10/23 03:03:01;;;;;;;8.82;2.05;;;;;;;12.80;100.00;99980.88;5040351;28;20481;-48
2022/10/23 03:05:34;;;;;;;1.27;0.57;;;;;;;12.85;100.00;99975.72;5045393;28;20032;-49
2022/10/23 03:08:03;;;;;;;2.85;0.95;;;;;;;12.78;100.00;99988.28;5035993;28;20517;-53
2022/10/23 03:10:28;;;;;;;6.90;2.13;;;;;;;12.78;100.00;99977.66;5037866;28;20030;-50
2022/10/23 03:12:53;;;;;;;8.43;2.70;;;;;;;12.83;100.00;99978.63;5038462;28;20340;-48
2022/10/23 03:15:19;;;;;;;2.97;0.57;;;;;;;12.85;100.00;99973.88;5046328;28;20032;-49
2022/10/23 03:17:44;;;;;;;4.78;1.13;;;;;;;12.85;100.00;99968.56;5042699;28;20041;-50
2022/10/23 03:20:10;;;;;;;5.28;1.10;;;;;;;12.90;100.00;99965.25;5046358;28;20139;-51
2022/10/23 03:22:35;;;;;;;4.38;1.00;;;;;;;12.87;100.00;99955.84;5031883;28;20032;-50
2022/10/23 03:25:01;;;;;;;4.72;1.15;;;;;;;12.95;100.00;99937.97;5038166;28;20028;-50
2022/10/23 03:27:26;;;;;;;10.35;2.38;;;;;;;13.00;100.00;99938.94;5046363;28;20044;-49
2022/10/23 03:29:51;;;;;;;6.63;1.45;;;;;;;13.02;100.00;99930.75;5041799;28;20401;-48
2022/10/23 03:32:17;;;;;;;8.25;2.22;;;;;;;13.03;100.00;99917.22;5036968;28;20033;-48
2022/10/23 03:34:42;;;;;;;4.78;1.02;;;;;;;13.03;100.00;99916.41;5038464;28;20036;-48
2022/10/23 03:37:08;;;;;;;5.43;1.27;;;;;;;13.02;100.00;99904.13;5045205;28;20029;-47
2022/10/23 03:39:33;;;;;;;8.27;1.83;;;;;;;13.02;100.00;99890.84;5049548;28;20028;-53
2022/10/23 03:41:59;;;;;;;2.55;1.98;;;;;;;12.99;100.00;99889.44;5037926;28;20021;-50
2022/10/23 03:44:24;;;;;;;5.50;1.48;;;;;;;12.98;100.00;99897.63;5045160;28;20639;-49
2022/10/23 03:46:49;;;;;;;4.38;1.33;;;;;;;12.97;100.00;99890.69;5032456;28;20036;-53
2022/10/23 03:49:15;;;;;;;4.65;1.25;;;;;;;12.97;100.00;99880.03;5048143;28;20088;-49
2022/10/23 03:51:40;;;;;;;6.40;3.15;;;;;;;12.91;100.00;99886.22;5031025;28;20034;-53
2022/10/23 03:54:07;;;;;;;3.67;0.80;;;;;;;12.92;100.00;99877.22;5045196;28;20423;-50
2022/10/23 03:56:32;;;;;;;2.55;0.77;;;;;;;12.95;100.00;99871.47;5033334;28;20521;-50
2022/10/23 03:58:58;;;;;;;2.40;0.90;;;;;;;12.99;100.00;99856.69;5055836;28;20026;-50
2022/10/23 04:01:23;;;;;;;1.58;0.60;;;;;;;13.03;100.00;99842.69;5041848;28;20081;-54
2022/10/23 04:03:48;;;;;;;3.85;1.20;;;;;;;13.07;100.00;99837.75;5041898;28;20032;-50
2022/10/23 04:06:14;;;;;;;3.22;0.30;;;;;;;13.03;100.00;99847.22;5036226;28;20028;-48
2022/10/23 04:08:42;;;;;;;5.28;0.90;;;;;;;13.00;100.00;99847.66;5032164;28;20056;-48
2022/10/23 04:11:07;;;;;;;8.13;2.13;;;;;;;13.00;100.00;99843.16;5030552;28;20366;-54
2022/10/23 04:13:33;;;;;;;7.00;1.23;;;;;;;13.01;100.00;99834.13;5042395;28;20032;-51
2022/10/23 04:15:58;;;;;;;0.68;0.43;;;;;;;13.06;100.00;99825.47;5036710;28;20487;-52
2022/10/23 04:18:23;;;;;;;5.05;1.88;;;;;;;13.04;100.00;99822.25;5039575;28;20124;-51
2022/10/23 04:20:49;;;;;;;1.95;0.30;;;;;;;13.01;100.00;99804.03;5036836;28;20159;-51
2022/10/23 04:23:15;;;;;;;3.28;1.02;;;;;;;13.02;100.00;99800.34;5034324;28;20085;-50
2022/10/23 04:25:40;;;;;;;2.22;1.02;;;;;;;13.04;100.00;99791.13;5030597;28;20105;-51
2022/10/23 04:28:06;;;;;;;3.38;1.10;;;;;;;13.04;100.00;99792.97;5034238;28;20127;-49
2022/10/23 04:30:31;;;;;;;9.77;0.90;;;;;;;12.98;100.00;99802.63;5030364;28;20065;-50
2022/10/23 04:32:57;;;;;;;6.60;0.47;;;;;;;12.96;100.00;99793.25;5030219;28;20048;-49
2022/10/23 04:35:22;;;;;;;1.20;0.57;;;;;;;13.03;100.00;99780.69;5037457;28;20054;-53
2022/10/23 04:37:48;;;;;;;3.80;1.10;;;;;;;13.02;100.00;99779.06;5058154;28;20470;-51
2022/10/23 04:40:13;;;;;;;6.00;2.10;;;;;;;13.04;100.00;99780.47;5039687;28;20048;-50
2022/10/23 04:42:38;;;;;;;2.00;0.73;;;;;;;13.11;100.00;99772.38;5030652;28;20036;-53
2022/10/23 04:45:05;;;;;;;5.47;0.82;;;;;;;13.10;100.00;99773.44;5054118;28;20477;-53
2022/10/23 04:47:30;;;;;;;7.75;1.30;;;;;;;13.10;100.00;99779.56;5044812;28;20037;-52
2022/10/23 04:49:55;;;;;;;6.22;1.17;;;;;;;13.09;100.00;99782.47;5037678;28;20124;-50
2022/10/23 04:52:21;;;;;;;5.38;1.50;;;;;;;13.10;100.00;99776.91;5039818;28;20026;-48
2022/10/23 04:54:47;;;;;;;5.32;0.98;;;;;;;13.09;100.00;99793.09;5042214;28;20026;-48
2022/10/23 04:57:12;;;;;;;3.42;0.38;;;;;;;13.06;100.00;99813.00;5053483;28;20056;-52
2022/10/23 04:59:38;;;;;;;5.65;0.75;;;;;;;13.07;100.00;99819.94;5040055;28;20029;-55
2022/10/23 05:02:04;;;;;;;6.40;0.82;;;;;;;13.07;100.00;99827.91;5038728;28;20029;-57
2022/10/23 05:04:29;;;;;;;2.78;1.00;;;;;;;13.06;100.00;99836.13;5033051;28;20112;-55
2022/10/23 05:06:54;;;;;;;5.50;1.38;;;;;;;13.07;100.00;99848.41;5043298;28;20176;-52
2022/10/23 05:09:21;;;;;;;4.85;0.88;;;;;;;13.08;100.00;99861.47;5046435;28;20029;-58
2022/10/23 05:11:47;;;;;;;6.53;0.85;;;;;;;13.09;100.00;99897.72;5034654;28;20026;-57
2022/10/23 05:14:12;;;;;;;5.90;1.40;;;;;;;13.12;100.00;99919.59;5040621;28;20021;-51
2022/10/23 05:16:47;;;;;;;4.78;1.50;;;;;;;13.17;100.00;99901.13;5035494;28;20075;-51
2022/10/23 05:19:19;;;;;;;6.28;1.50;;;;;;;13.14;100.00;99869.59;5051419;28;20033;-52
2022/10/23 05:21:48;;;;;;;1.77;1.60;;;;;;;13.10;100.00;99855.94;5040672;28;20112;-55
2022/10/23 05:24:15;;;;;;;5.32;1.25;;;;;;;13.05;100.00;99826.50;5038855;28;20364;-52
2022/10/23 05:26:41;;;;;;;1.92;0.75;;;;;;;13.02;100.00;99824.31;5033681;28;20057;-54
2022/10/23 05:29:06;;;;;;;15.70;1.35;;;;;;;12.98;100.00;99820.44;5050466;28;20076;-49
2022/10/23 05:31:34;;;;;;;2.25;0.77;;;;;;;12.97;100.00;99821.50;5037841;28;20064;-49
2022/10/23 05:33:59;;;;;;;3.67;0.85;;;;;;;12.93;100.00;99829.09;5038887;28;20028;-54
2022/10/23 05:36:26;;;;;;;3.35;0.45;;;;;;;12.93;100.00;99821.09;5041521;28;20447;-55
2022/10/23 05:38:52;;;;;;;3.65;1.58;;;;;;;12.97;100.00;99781.59;5047500;28;20025;-49
2022/10/23 05:41:17;;;;;;;3.60;0.90;;;;;;;12.98;100.00;99732.63;5048303;28;20119;-53
2022/10/23 05:43:42;;;;;;;1.05;0.70;;;;;;;12.96;100.00;99742.69;5045928;28;20565;-52
2022/10/23 05:46:08;;;;;;;1.52;0.35;;;;;;;12.94;100.00;99748.25;5037292;28;20083;-50
2022/10/23 05:48:33;;;;;;;5.43;1.25;;;;;;;12.89;100.00;99750.78;5043177;28;20106;-51
2022/10/23 05:51:07;;;;;;;1.13;0.50;;;;;;;12.90;100.00;99724.97;5044006;28;20032;-48
2022/10/23 05:53:33;;;;;;;2.22;0.52;;;;;;;12.90;100.00;99711.66;5031574;28;20403;-52
2022/10/23 05:56:07;;;;;;;2.60;1.25;;;;;;;12.90;100.00;99709.00;5050305;28;20098;-50
2022/10/23 05:58:33;;;;;;;1.55;0.35;;;;;;;12.90;100.00;99704.50;5043373;28;20032;-52
2022/10/23 06:00:59;;;;;;;2.35;0.50;;;;;;;12.92;100.00;99677.69;5033884;28;20077;-50
2022/10/23 06:03:24;;;;;;;3.65;0.43;;;;;;;12.95;100.00;99667.38;5044390;28;20036;-54
2022/10/23 06:05:50;;;;;;;3.35;1.90;;;;;;;12.98;100.00;99674.91;5033079;28;20064;-51
2022/10/23 06:08:16;;;;;;;1.67;0.77;;;;;;;12.99;100.00;99665.91;5045290;28;20142;-52
2022/10/23 06:10:42;;;;;;;0.20;0.10;;;;;;;13.01;100.00;99663.00;5031500;28;20035;-54
2022/10/23 06:13:07;;;;;;;3.30;0.32;;;;;;;13.00;100.00;99669.38;5035888;28;20067;-51
2022/10/23 06:15:32;;;;;;;1.00;0.60;;;;;;;12.94;100.00;99696.91;5051644;28;20036;-50
2022/10/23 06:18:02;;;;;;;0.93;0.28;;;;;;;12.90;100.00;99709.00;5036139;28;20036;-55
2022/10/23 06:20:27;;;;;;;0.85;0.08;;;;;;;12.91;100.00;99695.50;5044654;28;20056;-50
2022/10/23 06:22:53;;;;;;;0.77;0.30;;;;;;;12.91;100.00;99703.47;5038466;28;20104;-51
2022/10/23 06:25:18;;;;;;;2.50;0.80;;;;;;;12.95;100.00;99707.28;5044897;28;20050;-53
2022/10/23 06:27:43;;;;;;;4.40;0.10;;;;;;;12.99;100.00;99702.34;5040703;28;20041;-55
2022/10/23 06:30:09;;;;;;;1.98;0.15;;;;;;;13.02;100.00;99693.91;5040805;28;20021;-51
2022/10/23 06:32:35;;;;;;;0.63;0.20;;;;;;;13.06;100.00;99693.25;5044307;28;20029;-52
2022/10/23 06:35:00;;;;;;;1.50;0.20;;;;;;;13.04;100.00;99692.66;5042313;28;20524;-50
2022/10/23 06:37:25;;;;;;;5.38;0.95;;;;;;;13.05;100.00;99696.13;5040355;28;20104;-49
2022/10/23 06:39:51;;;;;;;0.47;0.20;;;;;;;13.03;100.00;99690.19;5040018;28;20056;-49
2022/10/23 06:42:16;;;;;;;4.28;0.57;;;;;;;13.04;100.00;99692.66;5042333;28;20026;-49
2022/10/23 06:44:41;;;;;;;4.07;1.33;;;;;;;13.03;100.00;99684.88;5040598;28;20025;-49
2022/10/23 06:47:09;;;;;;;4.50;0.45;;;;;;;13.07;100.00;99676.22;5024961;28;20028;-50
2022/10/23 06:49:35;;;;;;;2.47;0.20;;;;;;;13.07;100.00;99654.94;5036450;28;20034;-50
2022/10/23 06:52:00;;;;;;;2.35;0.47;;;;;;;13.12;100.00;99632.16;5029598;28;20169;-48
2022/10/23 06:54:25;;;;;;;1.23;0.85;;;;;;;13.08;100.00;99626.47;5034181;28;20045;-52
2022/10/23 06:56:51;;;;;;;2.00;0.28;;;;;;;13.05;100.00;99643.69;5032802;28;20037;-50
2022/10/23 06:59:16;;;;;;;2.05;0.32;;;;;;;13.01;100.00;99636.38;5030207;28;20116;-49
2022/10/23 07:01:42;;;;;;;2.35;0.40;;;;;;;12.99;100.00;99657.13;5025849;28;20028;-53
2022/10/23 07:04:07;;;;;;;3.20;0.50;;;;;;;12.97;100.00;99661.84;5030659;28;20034;-50
2022/10/23 07:06:32;;;;;;;4.03;0.47;;;;;;;12.96;100.00;99660.19;5027899;28;20033;-53
2022/10/23 07:08:58;;;;;;;1.77;0.47;;;;;;;12.97;100.00;99656.53;5031820;28;20382;-54
2022/10/23 07:11:24;;;;;;;3.65;0.68;;;;;;;12.97;100.00;99662.66;5031351;28;20128;-50
2022/10/23 07:13:50;;;;;;;3.88;1.27;;;;;;;12.96;100.00;99662.88;5031888;28;20502;-52
2022/10/23 07:16:18;;;;;;;4.57;1.00;;;;;;;12.97;100.00;99651.19;5034469;28;20029;-52
2022/10/23 07:18:44;;;;;;;2.10;0.13;;;;;;;12.97;100.00;99638.69;5032965;28;20025;-49
2022/10/23 07:21:10;;;;;;;7.93;0.55;;;;;;;12.95;100.00;99646.09;5029915;28;20041;-52
2022/10/23 07:23:35;;;;;;;1.67;0.70;;;;;;;12.94;100.00;99619.72;5032970;28;20021;-52
2022/10/23 07:26:06;;;;;;;5.43;1.58;;;;;;;12.96;100.00;99596.34;5043594;28;20025;-50
2022/10/23 07:28:31;;;;;;;5.32;0.47;;;;;;;12.95;100.00;99600.06;5036130;28;20041;-50
2022/10/23 07:30:58;;;;;;;0.90;0.50;;;;;;;12.96;100.00;99604.31;5029884;28;20079;-52
2022/10/23 07:33:23;;;;;;;0.75;0.50;;;;;;;12.96;100.00;99622.94;5031313;28;20383;-49
2022/10/23 07:35:49;;;;;;;6.63;0.43;;;;;;;13.00;100.00;99650.75;5028446;28;20044;-49
2022/10/23 07:38:14;;;;;;;0.50;0.50;;;;;;;13.02;100.00;99656.66;5030279;28;20044;-49
2022/10/23 07:40:39;;;;;;;17.80;6.15;;;;;;;13.04;100.00;99657.25;5031022;28;20470;-50
2022/10/23 07:43:05;;;;;;;11.10;4.57;;;;;;;13.04;100.00;99663.38;5028056;28;20033;-50
2022/10/23 07:45:30;;;;;;;16.05;6.15;;;;;;;13.07;100.00;99659.44;5021264;28;20037;-51
2022/10/23 07:47:55;;;;;;;14.23;5.18;;;;;;;13.06;100.00;99661.31;5027981;28;20044;-49
2022/10/23 07:50:21;;;;;;;4.85;1.77;;;;;;;13.07;100.00;99662.09;5028820;28;20075;-52
2022/10/23 07:52:46;;;;;;;26.95;9.70;;;;;;;13.07;100.00;99683.41;5032212;28;20422;-50
2022/10/23 07:55:12;;;;;;;12.63;4.80;;;;;;;13.08;100.00;99674.38;5029059;28;20062;-51
2022/10/23 07:57:38;;;;;;;16.48;7.28;;;;;;;13.06;100.00;99674.63;5029972;28;20486;-51
2022/10/23 08:00:05;;;;;;;8.73;3.08;;;;;;;13.06;100.00;99655.16;5032572;28;20199;-50
2022/10/23 08:02:30;;;;;;;9.82;2.03;;;;;;;13.05;100.00;99656.19;5028975;28;20400;-54
2022/10/23 08:04:56;;;;;;;2.53;1.00;;;;;;;13.09;100.00;99652.88;5031707;28;20599;-52
2022/10/23 08:07:21;;;;;;;2.63;0.68;;;;;;;13.12;100.00;99664.91;5028194;28;20720;-54
2022/10/23 08:09:47;;;;;;;1.00;0.40;;;;;;;13.17;100.00;99678.34;5027754;28;20021;-49
2022/10/23 08:12:12;;;;;;;0.70;0.70;;;;;;;13.20;100.00;99674.41;5031453;28;20535;-49
2022/10/23 08:14:38;;;;;;;8.65;1.40;;;;;;;13.23;100.00;99668.63;5033590;28;20510;-51
2022/10/23 08:17:03;;;;;;;5.15;0.65;;;;;;;13.26;100.00;99660.19;5028467;28;20037;-50
2022/10/23 08:19:29;;;;;;;3.45;0.38;;;;;;;13.29;100.00;99659.75;5028307;28;20033;-49
2022/10/23 08:21:56;;;;;;;1.80;0.38;;;;;;;13.31;100.00;99658.47;5023064;28;20046;-49
2022/10/23 08:24:22;;;;;;;1.52;1.20;;;;;;;13.34;100.00;99662.53;5034404;28;20091;-52
2022/10/23 08:26:50;;;;;;;4.95;0.50;;;;;;;13.39;100.00;99667.19;5031422;28;20060;-49
2022/10/23 08:29:15;;;;;;;2.63;0.68;;;;;;;13.43;100.00;99655.03;5034490;28;20072;-52
2022/10/23 08:31:41;;;;;;;5.95;0.85;;;;;;;13.45;100.00;99652.94;5031003;28;20060;-53
2022/10/23 08:34:06;;;;;;;1.50;0.57;;;;;;;13.47;100.00;99651.66;5036563;28;20036;-49
2022/10/23 08:36:32;;;;;;;1.38;0.40;;;;;;;13.50;100.00;99651.22;5033609;28;20075;-50
2022/10/23 08:38:58;;;;;;;1.17;0.28;;;;;;;13.51;100.00;99649.38;5035979;28;20040;-53
2022/10/23 08:41:39;;;;;;;3.15;0.50;;;;;;;13.56;100.00;99643.38;5029339;28;20032;-56
2022/10/23 08:44:48;;;;;;;2.45;0.70;;;;;;;13.63;100.00;99623.56;5033239;28;20072;-53
2022/10/23 08:47:22;;;;;;;1.20;0.40;;;;;;;13.68;100.00;99634.34;5032991;28;20544;-49
2022/10/23 08:50:05;;;;;;;4.18;1.00;;;;;;;13.68;100.00;99626.34;5040978;28;20118;-52
2022/10/23 08:52:36;;;;;;;0.73;0.70;;;;;;;13.65;100.00;99620.66;5037246;28;20112;-53
2022/10/23 08:55:05;;;;;;;0.80;0.65;;;;;;;13.62;100.00;99619.25;5030846;28;20493;-55
2022/10/23 08:57:42;;;;;;;0.85;0.52;;;;;;;13.63;100.00;99614.75;5031509;28;20466;-55
2022/10/23 09:00:13;;;;;;;2.00;0.45;;;;;;;13.58;100.00;99626.13;5049826;28;20025;-52
2022/10/23 09:02:45;;;;;;;1.95;0.55;;;;;;;13.54;100.00;99635.59;5033032;28;20037;-50
2022/10/23 09:05:15;;;;;;;2.08;0.50;;;;;;;13.52;100.00;99643.00;5030490;28;20033;-53
2022/10/23 09:08:02;;;;;;;1.20;0.40;;;;;;;13.50;100.00;99621.09;5033840;28;20033;-53
2022/10/23 09:10:34;;;;;;;1.27;0.40;;;;;;;13.51;100.00;99625.41;5038313;28;20032;-54
2022/10/23 09:13:28;;;;;;;0.98;0.30;;;;;;;13.52;100.00;99630.47;5033245;28;20033;-51
2022/10/23 09:16:26;;;;;;;3.08;0.50;;;;;;;13.53;100.00;99626.00;5031131;28;20045;-52
2022/10/23 09:18:53;;;;;;;5.55;0.38;;;;;;;13.50;100.00;99621.94;5029696;28;20068;-54
2022/10/23 09:21:19;;;;;;;1.50;0.40;;;;;;;13.47;100.00;99627.69;5031022;28;20029;-51
2022/10/23 09:23:45;;;;;;;1.67;0.60;;;;;;;13.46;100.00;99639.41;5030036;28;20079;-55
2022/10/23 09:26:16;;;;;;;1.67;0.70;;;;;;;13.45;100.00;99668.91;5032981;28;20033;-55
2022/10/23 09:28:47;;;;;;;;;;;;;;;13.45;100.00;99690.22;5031654;28;20048;-54
2022/10/23 09:31:13;;;;;;;1.63;0.50;;;;;;;13.43;100.00;99644.41;5031654;28;20050;-49
2022/10/23 09:33:39;;;;;;;1.73;0.73;;;;;;;13.43;100.00;99560.00;5041553;28;20531;-51
2022/10/23 09:36:17;;;;;;;1.85;0.77;;;;;;;13.42;100.00;99499.78;5035205;28;20068;-55
2022/10/23 09:38:46;;;;;;;1.85;0.50;;;;;;;13.38;100.00;99493.31;5031562;28;20025;-50
2022/10/23 09:41:26;;;;;;;0.55;0.50;;;;;;;13.39;100.00;99499.44;5032355;28;20040;-49
2022/10/23 09:44:07;;;;;;;1.95;1.58;;;;;;;13.42;100.00;99435.88;5032732;28;20065;-48
2022/10/23 09:46:43;;;;;;;0.70;0.47;;;;;;;13.43;100.00;99484.63;5030209;28;20033;-53
2022/10/23 09:49:23;;;;;;;2.60;0.82;;;;;;;13.49;100.00;99502.31;5034279;28;20029;-52
2022/10/23 09:52:00;;;;;;;0.52;0.40;;;;;;;13.59;100.00;99499.06;5027937;28;20093;-52
2022/10/23 09:54:29;;;;;;;1.20;0.32;;;;;;;13.93;100.00;99490.16;5035843;28;20036;-51
2022/10/23 09:57:04;;;;;;;2.10;0.28;;;;;;;14.31;100.00;99507.41;5031113;28;20033;-51
2022/10/23 09:59:31;;;;;;;16.70;7.25;;;;;;;14.74;100.00;99521.22;5036907;28;20690;-50
2022/10/23 10:01:59;;;;;;;9.40;4.10;;;;;;;14.97;100.00;99505.09;5043714;28;21765;-50
2022/10/23 10:04:37;;;;;;;2.60;1.25;;;;;;;15.14;100.00;99517.59;5035091;28;20034;-52
2022/10/23 10:07:14;;;;;;;6.30;1.63;;;;;;;15.25;100.00;99535.38;5039776;28;20426;-50
2022/10/23 10:09:39;;;;;;;1.67;0.90;;;;;;;15.12;100.00;99523.19;5048429;28;20053;-54
2022/10/23 10:12:30;;;;;;;1.90;0.57;;;;;;;15.15;100.00;99519.22;5038611;28;20032;-53
2022/10/23 10:15:01;;;;;;;2.35;0.45;;;;;;;15.30;100.00;99519.44;5031060;28;20112;-50
2022/10/23 10:17:45;;;;;;;;;;;;;;;15.42;100.00;99511.34;5036891;28;20018;-51
2022/10/23 10:20:44;;;;;;;0.88;0.20;;;;;;;15.38;100.00;99515.53;5038025;28;19924;-52
2022/10/23 10:23:30;;;;;;;0.70;0.30;;;;;;;15.32;100.00;99503.97;5037500;28;20101;-50
2022/10/23 10:26:16;;;;;;;2.15;0.10;;;;;;;15.28;100.00;99492.16;5036734;28;20050;-56
2022/10/23 10:29:24;;;;;;;1.38;0.20;;;;;;;15.43;100.00;99486.22;5038610;28;20102;-54
2022/10/23 10:32:05;;;;;;;0.57;0.17;;;;;;;15.61;100.00;99487.81;5030033;28;20036;-53
2022/10/23 10:34:41;;;;;;;0.88;0.08;;;;;;;15.94;100.00;99483.41;5033586;28;20048;-58
2022/10/23 10:37:35;;;;;;;0.60;0.10;;;;;;;16.30;100.00;99481.91;5036765;28;20402;-57
2022/10/23 10:40:15;;;;;;;0.45;0.15;;;;;;;16.62;100.00;99481.13;5034944;28;20057;-55
2022/10/23 10:43:03;;;;;;;4.50;0.43;;;;;;;16.76;100.00;99487.69;5039512;28;20057;-51
2022/10/23 10:45:36;;;;;;;0.60;0.10;;;;;;;16.68;100.00;99491.63;5033375;28;20025;-56
2022/10/23 10:48:41;;;;;;;2.90;0.20;;;;;;;16.50;100.00;99489.34;5034024;28;20021;-54
2022/10/23 10:51:16;;;;;;;1.10;0.05;;;;;;;16.24;100.00;99493.66;5036336;28;20028;-54
2022/10/23 10:54:23;;;;;;;4.40;1.30;;;;;;;16.00;100.00;99490.44;5039953;28;20047;-56
2022/10/23 10:56:49;;;;;;;1.38;0.20;;;;;;;16.27;100.00;99480.56;5027910;28;20067;-55
2022/10/23 10:59:28;;;;;;;0.88;0.30;;;;;;;16.43;100.00;99494.88;5027401;28;20029;-56
2022/10/23 11:02:42;;;;;;;2.05;0.30;;;;;;;16.27;100.00;99490.47;5029699;28;20045;-56
2022/10/23 11:05:11;;;;;;;0.65;0.10;;;;;;;16.31;100.00;99487.00;5017589;28;20463;-57
2022/10/23 11:07:41;;;;;;;0.88;0.32;;;;;;;16.36;100.00;99480.91;5026802;28;20526;-52
2022/10/23 11:10:18;;;;;;;2.55;0.35;;;;;;;16.32;100.00;99475.25;5029381;28;20037;-54
2022/10/23 11:12:45;;;;;;;1.15;0.20;;;;;;;16.32;100.00;99472.59;5031635;28;20489;-51
2022/10/23 11:15:17;;;;;;;0.93;0.55;;;;;;;16.35;100.00;99468.59;5031289;28;20037;-53
2022/10/23 11:17:47;;;;;;;0.70;0.15;;;;;;;16.29;100.00;99462.41;5030338;28;20030;-53
2022/10/23 11:20:33;;;;;;;0.20;0.17;;;;;;;16.31;100.00;99449.56;5032714;28;20035;-57
2022/10/23 11:23:32;;;;;;;2.72;0.20;;;;;;;16.08;100.00;99433.81;5027265;28;20036;-52
2022/10/23 11:26:11;;;;;;;0.10;0.03;;;;;;;16.17;100.00;99428.84;5032219;28;20038;-49
2022/10/23 11:28:55;;;;;;;0.88;0.20;;;;;;;16.34;100.00;99424.16;5041631;28;20476;-53
2022/10/23 11:31:44;;;;;;;1.75;0.05;;;;;;;16.67;100.00;99420.41;5036818;28;20029;-50
2022/10/23 11:34:13;;;;;;;0.10;0.10;;;;;;;16.99;100.00;99417.72;5045466;28;20030;-52
2022/10/23 11:36:45;;;;;;;2.25;0.32;;;;;;;17.11;100.00;99406.78;5034399;28;20033;-50
2022/10/23 11:39:21;;;;;;;0.60;0.05;;;;;;;17.21;100.00;99398.81;5034041;28;20120;-51
2022/10/23 11:42:11;;;;;;;0.50;0.47;;;;;;;17.08;100.00;99385.91;5038748;28;20555;-50